Time;durP1;ratioP1;P1;durP2;ratioP2;P2;SDS_P1;SDS_P2;PMS_P1;PMS_P2;Temp;Humidity;BMP_temperature;BMP_pressure;BME280_temperature;BME280_humidity;BME280_pressure;Samples;Min_cycle;Max_cycle;Signal;HPM_P1;HPM_P2
2023/04/04 00:00:15;;;;;;;4.85;3.00;;;;;;;;;;5005249;28;20030;-56
2023/04/04 00:02:41;;;;;;;6.25;3.30;;;;;;;;;;5003905;28;20026;-59
2023/04/04 00:05:08;;;;;;;3.92;2.90;;;;;;;;;;5006554;28;20042;-56
2023/04/04 00:07:34;;;;;;;4.20;3.22;;;;;;;;;;5006284;28;20037;-55
2023/04/04 00:10:00;;;;;;;3.75;3.33;;;;;;;;;;5008298;28;20030;-56
2023/04/04 00:12:26;;;;;;;3.47;2.90;;;;;;;;;;5009832;28;20041;-56
2023/04/04 00:14:53;;;;;;;3.85;2.78;;;;;;;;;;5008585;28;20499;-56
2023/04/04 00:17:19;;;;;;;3.40;3.05;;;;;;;;;;5006288;28;20042;-58
2023/04/04 00:19:45;;;;;;;4.30;3.20;;;;;;;;;;5003942;28;20034;-56
2023/04/04 00:22:14;;;;;;;6.30;3.08;;;;;;;;;;5004086;28;20093;-56
2023/04/04 00:24:41;;;;;;;4.00;3.00;;;;;;;;;;5001562;28;20037;-56
2023/04/04 00:27:07;;;;;;;4.40;3.25;;;;;;;;;;5006442;28;20038;-56
2023/04/04 00:29:33;;;;;;;4.88;3.08;;;;;;;;;;5007530;28;20034;-56
2023/04/04 00:32:00;;;;;;;4.47;2.88;;;;;;;;;;4990538;28;20049;-56
2023/04/04 00:34:26;;;;;;;6.30;3.03;;;;;;;;;;4997974;28;20022;-57
2023/04/04 00:36:52;;;;;;;4.90;3.05;;;;;;;;;;5004556;28;20411;-56
2023/04/04 00:39:18;;;;;;;5.03;2.90;;;;;;;;;;5002484;28;20026;-58
2023/04/04 00:41:47;;;;;;;4.18;3.05;;;;;;;;;;5008417;28;20495;-57
2023/04/04 00:44:14;;;;;;;6.38;3.17;;;;;;;;;;5010915;28;20036;-57
2023/04/04 00:46:40;;;;;;;4.25;3.00;;;;;;;;;;5010327;28;20044;-56
2023/04/04 00:49:06;;;;;;;8.48;3.40;;;;;;;;;;5010875;28;20038;-56
2023/04/04 00:51:33;;;;;;;5.53;3.30;;;;;;;;;;5010561;28;20041;-57
2023/04/04 00:53:59;;;;;;;4.75;3.10;;;;;;;;;;5010737;28;20053;-55
2023/04/04 00:56:27;;;;;;;6.75;3.90;;;;;;;;;;5029072;28;20106;-56
2023/04/04 00:58:54;;;;;;;5.50;3.40;;;;;;;;;;5010755;28;20042;-56
2023/04/04 01:01:20;;;;;;;5.05;3.20;;;;;;;;;;5010315;28;20041;-56
2023/04/04 01:03:46;;;;;;;5.40;3.13;;;;;;;;;;5011691;28;20048;-57
2023/04/04 01:06:14;;;;;;;5.38;3.13;;;;;;;;;;5007786;28;20056;-55
2023/04/04 01:08:42;;;;;;;5.22;3.10;;;;;;;;;;5011168;28;20058;-57
2023/04/04 01:11:08;;;;;;;4.72;2.92;;;;;;;;;;5005473;28;20504;-56
2023/04/04 01:13:35;;;;;;;4.18;3.00;;;;;;;;;;5010118;28;20042;-56
2023/04/04 01:16:02;;;;;;;6.57;3.17;;;;;;;;;;5008280;28;20049;-56
2023/04/04 01:18:29;;;;;;;4.47;2.92;;;;;;;;;;5006226;28;20034;-56
2023/04/04 01:21:03;;;;;;;4.80;3.10;;;;;;;;;;5009955;28;20496;-56
2023/04/04 01:23:48;;;;;;;4.82;3.22;;;;;;;;;;5002585;28;20029;-56
2023/04/04 01:26:15;;;;;;;5.15;2.83;;;;;;;;;;5022002;28;20046;-57
2023/04/04 01:28:41;;;;;;;3.55;2.85;;;;;;;;;;5008337;28;20523;-57
2023/04/04 01:31:13;;;;;;;4.18;2.92;;;;;;;;;;5008357;28;20419;-57
2023/04/04 01:33:49;;;;;;;6.25;3.15;;;;;;;;;;5010140;28;20038;-57
2023/04/04 01:36:29;;;;;;;3.65;3.00;;;;;;;;;;5005695;28;20408;-56
2023/04/04 01:39:03;;;;;;;;;;;;;;;;;;5008879;28;20380;-57
2023/04/04 01:41:33;;;;;;;5.38;2.65;;;;;;;;;;5010158;28;19920;-56
2023/04/04 01:44:01;;;;;;;7.18;3.20;;;;;;;;;;5009485;28;20029;-57
2023/04/04 01:46:28;;;;;;;3.58;2.35;;;;;;;;;;5010701;28;20045;-56
2023/04/04 01:48:54;;;;;;;4.45;2.60;;;;;;;;;;5008352;28;20500;-57
2023/04/04 01:51:29;;;;;;;5.85;3.10;;;;;;;;;;5008426;28;20033;-55
2023/04/04 01:53:55;;;;;;;4.60;3.05;;;;;;;;;;5009017;28;20057;-56
2023/04/04 01:56:22;;;;;;;4.53;2.85;;;;;;;;;;5007846;28;20519;-56
2023/04/04 01:58:48;;;;;;;5.10;2.85;;;;;;;;;;5007691;28;20038;-57
2023/04/04 02:01:14;;;;;;;4.95;2.83;;;;;;;;;;5008340;28;20033;-56
2023/04/04 02:03:41;;;;;;;4.30;2.78;;;;;;;;;;5010845;28;20030;-57
2023/04/04 02:06:08;;;;;;;2.92;2.50;;;;;;;;;;5008002;28;20044;-56
2023/04/04 02:08:34;;;;;;;5.00;2.40;;;;;;;;;;5009661;28;20030;-57
2023/04/04 02:11:00;;;;;;;4.13;2.83;;;;;;;;;;5010642;28;20029;-56
2023/04/04 02:13:27;;;;;;;5.68;2.45;;;;;;;;;;5010023;28;20420;-56
2023/04/04 02:15:56;;;;;;;4.43;2.55;;;;;;;;;;5004031;28;20066;-56
2023/04/04 02:18:23;;;;;;;5.03;2.70;;;;;;;;;;4998427;28;20038;-56
2023/04/04 02:20:56;;;;;;;5.38;2.70;;;;;;;;;;5006108;28;20503;-57
2023/04/04 02:23:22;;;;;;;6.18;2.97;;;;;;;;;;5003547;28;20038;-56
2023/04/04 02:25:49;;;;;;;8.02;2.38;;;;;;;;;;5008258;28;20627;-56
2023/04/04 02:28:16;;;;;;;4.20;2.75;;;;;;;;;;5009021;28;20056;-56
2023/04/04 02:30:42;;;;;;;3.75;2.72;;;;;;;;;;5004464;28;20058;-55
2023/04/04 02:33:08;;;;;;;5.05;2.88;;;;;;;;;;5003483;28;20527;-56
2023/04/04 02:35:34;;;;;;;5.22;2.60;;;;;;;;;;5004763;28;20037;-56
2023/04/04 02:38:01;;;;;;;6.10;3.38;;;;;;;;;;5008087;28;20030;-56
2023/04/04 02:40:40;;;;;;;5.00;3.05;;;;;;;;;;5005017;28;20042;-55
2023/04/04 02:43:06;;;;;;;3.95;3.10;;;;;;;;;;4993107;28;20038;-58
2023/04/04 02:45:33;;;;;;;7.10;3.00;;;;;;;;;;4994279;28;20480;-57
2023/04/04 02:48:07;;;;;;;4.70;2.92;;;;;;;;;;5004888;28;20436;-56
2023/04/04 02:50:46;;;;;;;5.13;2.70;;;;;;;;;;5005967;28;20045;-56
2023/04/04 02:53:14;;;;;;;4.55;2.90;;;;;;;;;;5008761;28;20053;-56
2023/04/04 02:55:41;;;;;;;4.55;2.80;;;;;;;;;;5005953;28;20074;-56
2023/04/04 02:58:07;;;;;;;4.75;2.50;;;;;;;;;;5003290;28;20399;-56
2023/04/04 03:00:34;;;;;;;4.45;3.35;;;;;;;;;;5005936;28;20045;-57
2023/04/04 03:03:00;;;;;;;5.68;2.67;;;;;;;;;;4976117;28;20034;-58
2023/04/04 03:05:31;;;;;;;3.95;2.50;;;;;;;;;;5008433;28;20038;-56
2023/04/04 03:07:58;;;;;;;6.25;2.95;;;;;;;;;;5008823;28;20046;-56
2023/04/04 03:10:28;;;;;;;3.08;2.78;;;;;;;;;;5008367;28;20045;-57
2023/04/04 03:12:55;;;;;;;4.82;3.05;;;;;;;;;;5010130;28;20514;-57
2023/04/04 03:15:24;;;;;;;5.35;3.05;;;;;;;;;;5005884;28;20050;-56
2023/04/04 03:17:51;;;;;;;7.00;3.40;;;;;;;;;;5006389;28;20050;-56
2023/04/04 03:20:20;;;;;;;6.43;3.22;;;;;;;;;;4998490;28;20471;-56
2023/04/04 03:22:47;;;;;;;5.50;2.90;;;;;;;;;;5000846;28;20052;-56
2023/04/04 03:25:13;;;;;;;4.72;2.78;;;;;;;;;;5005747;28;20057;-56
2023/04/04 03:27:39;;;;;;;7.80;2.92;;;;;;;;;;5003950;28;20445;-57
2023/04/04 03:30:07;;;;;;;4.55;3.20;;;;;;;;;;5003701;28;20046;-57
2023/04/04 03:32:35;;;;;;;5.20;2.63;;;;;;;;;;5004828;28;20030;-57
2023/04/04 03:35:01;;;;;;;4.47;2.80;;;;;;;;;;5006695;28;20384;-57
2023/04/04 03:37:30;;;;;;;5.90;2.97;;;;;;;;;;5005092;28;20045;-57
2023/04/04 03:39:56;;;;;;;5.03;3.10;;;;;;;;;;5008636;28;20427;-57
2023/04/04 03:42:23;;;;;;;4.05;2.85;;;;;;;;;;5007822;28;20511;-57
2023/04/04 03:44:49;;;;;;;6.32;3.30;;;;;;;;;;5007687;28;20046;-56
2023/04/04 03:47:25;;;;;;;6.10;3.50;;;;;;;;;;5006250;28;20056;-56
2023/04/04 03:49:52;;;;;;;3.88;2.83;;;;;;;;;;5007462;28;20049;-56
2023/04/04 03:52:18;;;;;;;6.07;3.30;;;;;;;;;;5007184;28;20033;-56
2023/04/04 03:54:44;;;;;;;6.13;3.17;;;;;;;;;;5009080;28;20972;-55
2023/04/04 03:57:11;;;;;;;5.20;3.25;;;;;;;;;;5010076;28;20045;-56
2023/04/04 03:59:37;;;;;;;4.75;2.72;;;;;;;;;;5006288;28;20041;-56
2023/04/04 04:02:04;;;;;;;4.13;2.90;;;;;;;;;;5003878;28;20022;-56
2023/04/04 04:04:30;;;;;;;7.80;3.72;;;;;;;;;;5008990;28;20029;-55
2023/04/04 04:06:57;;;;;;;4.75;3.13;;;;;;;;;;5009096;28;20045;-56
2023/04/04 04:09:23;;;;;;;5.13;3.17;;;;;;;;;;5006878;28;20361;-56
2023/04/04 04:11:50;;;;;;;5.47;3.10;;;;;;;;;;5009179;28;20514;-56
2023/04/04 04:14:16;;;;;;;4.75;3.38;;;;;;;;;;5007553;28;20057;-56
2023/04/04 04:16:43;;;;;;;3.75;3.20;;;;;;;;;;5008035;28;20046;-56
2023/04/04 04:19:12;;;;;;;5.75;3.67;;;;;;;;;;5002422;28;20051;-56
2023/04/04 04:21:41;;;;;;;7.57;3.72;;;;;;;;;;5002554;28;20052;-56
2023/04/04 04:24:08;;;;;;;23.52;8.40;;;;;;;;;;5004374;28;20038;-55
2023/04/04 04:26:34;;;;;;;26.02;8.25;;;;;;;;;;5009355;28;20048;-55
2023/04/04 04:29:01;;;;;;;16.40;5.72;;;;;;;;;;5006139;28;20056;-56
2023/04/04 04:31:30;;;;;;;24.42;9.45;;;;;;;;;;5011774;28;20041;-57
2023/04/04 04:33:56;;;;;;;19.13;7.15;;;;;;;;;;5008704;28;20053;-56
2023/04/04 04:36:27;;;;;;;13.18;6.47;;;;;;;;;;4991127;28;20025;-55
2023/04/04 04:39:06;;;;;;;8.43;5.22;;;;;;;;;;5002877;28;20045;-55
2023/04/04 04:41:37;;;;;;;17.27;8.75;;;;;;;;;;5007497;28;20033;-55
2023/04/04 04:44:04;;;;;;;9.70;6.00;;;;;;;;;;5009291;28;20034;-56
2023/04/04 04:46:31;;;;;;;8.82;5.35;;;;;;;;;;5010688;28;20057;-56
2023/04/04 04:48:58;;;;;;;14.63;7.78;;;;;;;;;;5011346;28;20522;-55
2023/04/04 04:51:28;;;;;;;15.85;8.75;;;;;;;;;;5008649;28;20086;-55
2023/04/04 04:53:56;;;;;;;9.57;4.72;;;;;;;;;;5011420;28;20050;-55
2023/04/04 04:56:23;;;;;;;8.50;4.32;;;;;;;;;;5005430;28;20025;-56
2023/04/04 04:58:52;;;;;;;11.50;5.83;;;;;;;;;;4977985;28;21936;-56
2023/04/04 05:01:25;;;;;;;10.10;6.18;;;;;;;;;;5010715;28;20052;-56
2023/04/04 05:03:52;;;;;;;6.20;3.90;;;;;;;;;;5011133;28;20053;-55
2023/04/04 05:06:24;;;;;;;10.63;4.03;;;;;;;;;;5011583;28;20033;-55
2023/04/04 05:08:51;;;;;;;8.65;4.53;;;;;;;;;;5006652;28;20055;-55
2023/04/04 05:11:26;;;;;;;6.00;3.97;;;;;;;;;;5006068;28;20519;-54
2023/04/04 05:13:53;;;;;;;5.30;3.95;;;;;;;;;;5010083;28;20531;-54
2023/04/04 05:16:20;;;;;;;5.85;3.80;;;;;;;;;;5001618;28;20041;-55
2023/04/04 05:18:48;;;;;;;5.50;3.80;;;;;;;;;;5002545;28;20644;-54
2023/04/04 05:21:15;;;;;;;8.25;3.90;;;;;;;;;;5010808;28;20030;-55
2023/04/04 05:23:43;;;;;;;6.15;4.00;;;;;;;;;;4992143;28;20040;-55
2023/04/04 05:26:10;;;;;;;7.35;4.43;;;;;;;;;;5000666;28;20046;-54
2023/04/04 05:28:39;;;;;;;6.43;3.83;;;;;;;;;;4999732;28;20046;-55
2023/04/04 05:31:06;;;;;;;8.20;4.72;;;;;;;;;;5008919;28;20048;-55
2023/04/04 05:33:34;;;;;;;7.03;3.70;;;;;;;;;;4997936;28;20385;-55
2023/04/04 05:36:11;;;;;;;7.68;4.53;;;;;;;;;;4994659;28;20033;-54
2023/04/04 05:38:43;;;;;;;7.22;4.30;;;;;;;;;;5011128;28;20085;-55
2023/04/04 05:41:10;;;;;;;5.30;3.75;;;;;;;;;;5007318;28;20042;-53
2023/04/04 05:43:37;;;;;;;4.90;3.70;;;;;;;;;;5009532;28;20499;-54
2023/04/04 05:46:10;;;;;;;5.75;4.07;;;;;;;;;;5009019;28;20061;-54
2023/04/04 05:48:44;;;;;;;10.25;4.50;;;;;;;;;;5008410;28;20046;-57
2023/04/04 05:51:12;;;;;;;10.73;4.70;;;;;;;;;;5009490;28;20050;-55
2023/04/04 05:53:46;;;;;;;6.75;4.72;;;;;;;;;;5008315;28;20487;-55
2023/04/04 05:56:16;;;;;;;5.60;4.50;;;;;;;;;;5007667;28;20025;-55
2023/04/04 05:58:45;;;;;;;7.93;4.18;;;;;;;;;;5003465;28;20057;-54
2023/04/04 06:01:13;;;;;;;5.38;4.13;;;;;;;;;;5005303;28;20038;-55
2023/04/04 06:03:40;;;;;;;6.13;4.00;;;;;;;;;;5007233;28;20041;-53
2023/04/04 06:06:11;;;;;;;5.35;3.70;;;;;;;;;;5005525;28;20037;-54
2023/04/04 06:08:37;;;;;;;7.65;3.50;;;;;;;;;;5010190;28;20034;-55
2023/04/04 06:11:03;;;;;;;6.25;3.80;;;;;;;;;;5011173;28;20372;-55
2023/04/04 06:13:30;;;;;;;6.53;4.03;;;;;;;;;;5005087;28;20038;-54
2023/04/04 06:16:01;;;;;;;7.00;3.70;;;;;;;;;;4987510;28;20475;-54
2023/04/04 06:18:28;;;;;;;9.57;4.00;;;;;;;;;;5003079;28;20053;-54
2023/04/04 06:20:54;;;;;;;7.07;4.00;;;;;;;;;;4990166;28;20038;-55
2023/04/04 06:23:20;;;;;;;3.85;2.75;;;;;;;;;;5000367;28;20054;-54
2023/04/04 06:25:49;;;;;;;5.72;3.40;;;;;;;;;;4998887;28;20105;-55
2023/04/04 06:28:18;;;;;;;8.00;4.00;;;;;;;;;;4999582;28;20411;-55
2023/04/04 06:30:47;;;;;;;9.52;5.00;;;;;;;;;;5005070;28;20049;-54
2023/04/04 06:33:15;;;;;;;6.35;4.55;;;;;;;;;;5005817;28;20769;-55
2023/04/04 06:35:46;;;;;;;10.23;5.28;;;;;;;;;;4994826;28;20503;-55
2023/04/04 06:38:13;;;;;;;10.02;4.95;;;;;;;;;;5009656;28;20030;-56
2023/04/04 06:40:39;;;;;;;6.20;4.15;;;;;;;;;;5008214;28;20029;-56
2023/04/04 06:43:06;;;;;;;6.60;3.95;;;;;;;;;;5009166;28;20037;-55
2023/04/04 06:45:37;;;;;;;4.13;3.08;;;;;;;;;;5010030;28;20050;-54
2023/04/04 06:48:03;;;;;;;6.85;4.05;;;;;;;;;;5010726;28;20041;-55
2023/04/04 06:50:32;;;;;;;7.63;4.22;;;;;;;;;;5010244;28;20037;-55
2023/04/04 06:53:01;;;;;;;7.07;4.05;;;;;;;;;;5009372;28;20053;-55
2023/04/04 06:55:28;;;;;;;6.55;3.55;;;;;;;;;;5005927;28;20022;-55
2023/04/04 06:57:54;;;;;;;7.18;4.10;;;;;;;;;;5008958;28;20061;-55
2023/04/04 07:00:21;;;;;;;9.70;4.60;;;;;;;;;;5009483;28;20054;-54
2023/04/04 07:02:47;;;;;;;8.18;5.45;;;;;;;;;;5010554;28;20492;-55
2023/04/04 07:05:16;;;;;;;8.52;4.00;;;;;;;;;;4987804;28;20042;-55
2023/04/04 07:07:44;;;;;;;7.47;4.00;;;;;;;;;;5010082;28;20052;-55
2023/04/04 07:10:10;;;;;;;8.02;4.53;;;;;;;;;;5009567;28;20053;-55
2023/04/04 07:12:36;;;;;;;5.70;3.65;;;;;;;;;;5004469;28;20050;-54
2023/04/04 07:15:02;;;;;;;6.60;3.53;;;;;;;;;;5000237;28;20029;-54
2023/04/04 07:17:28;;;;;;;7.63;3.95;;;;;;;;;;5010734;28;20049;-54
2023/04/04 07:19:55;;;;;;;5.15;3.17;;;;;;;;;;5004312;28;20384;-54
2023/04/04 07:22:21;;;;;;;7.80;3.95;;;;;;;;;;4999389;28;20152;-54
2023/04/04 07:24:47;;;;;;;5.80;3.60;;;;;;;;;;5002651;28;20046;-54
2023/04/04 07:27:14;;;;;;;9.70;3.67;;;;;;;;;;5000148;28;20053;-54
2023/04/04 07:29:41;;;;;;;8.77;3.75;;;;;;;;;;5000598;28;20046;-54
2023/04/04 07:32:07;;;;;;;6.60;3.95;;;;;;;;;;5010082;28;20045;-55
2023/04/04 07:34:33;;;;;;;7.28;4.20;;;;;;;;;;5007044;28;20527;-53
2023/04/04 07:36:59;;;;;;;4.40;3.75;;;;;;;;;;5009672;28;20052;-55
2023/04/04 07:39:26;;;;;;;6.75;3.58;;;;;;;;;;5007968;28;20040;-55
2023/04/04 07:41:52;;;;;;;6.82;3.65;;;;;;;;;;5008593;28;20057;-54
2023/04/04 07:44:21;;;;;;;16.02;7.25;;;;;;;;;;5008788;28;20046;-54
2023/04/04 07:46:48;;;;;;;11.98;5.68;;;;;;;;;;5009569;28;20037;-55
2023/04/04 07:49:14;;;;;;;25.15;8.27;;;;;;;;;;5009013;28;20046;-55
2023/04/04 07:51:41;;;;;;;22.30;7.55;;;;;;;;;;5008233;28;20037;-55
2023/04/04 07:54:08;;;;;;;9.48;5.00;;;;;;;;;;5009095;28;20503;-56
2023/04/04 07:56:34;;;;;;;11.50;6.10;;;;;;;;;;5008434;28;20056;-54
2023/04/04 07:59:00;;;;;;;16.88;9.18;;;;;;;;;;5008726;28;20054;-56
2023/04/04 08:01:27;;;;;;;14.90;8.80;;;;;;;;;;5009275;28;20037;-53
2023/04/04 08:03:53;;;;;;;10.45;6.25;;;;;;;;;;5009783;28;20065;-54
2023/04/04 08:06:19;;;;;;;7.57;5.13;;;;;;;;;;5009231;28;20053;-55
2023/04/04 08:08:46;;;;;;;5.10;4.00;;;;;;;;;;5009124;28;20045;-55
2023/04/04 08:11:13;;;;;;;4.78;3.42;;;;;;;;;;5005944;28;20403;-56
2023/04/04 08:13:39;;;;;;;6.50;4.32;;;;;;;;;;5004133;28;20506;-55
2023/04/04 08:16:06;;;;;;;5.75;4.15;;;;;;;;;;5003826;28;20026;-54
2023/04/04 08:18:32;;;;;;;7.35;4.03;;;;;;;;;;5002982;28;20057;-55
2023/04/04 08:20:59;;;;;;;8.25;4.10;;;;;;;;;;4997078;28;20046;-56
2023/04/04 08:23:25;;;;;;;5.60;3.97;;;;;;;;;;4996686;28;20400;-55
2023/04/04 08:25:51;;;;;;;6.35;4.10;;;;;;;;;;5002528;28;20090;-55
2023/04/04 08:28:17;;;;;;;5.63;4.53;;;;;;;;;;5000037;28;20037;-55
2023/04/04 08:30:43;;;;;;;6.40;4.22;;;;;;;;;;5000324;28;20515;-55
2023/04/04 08:33:09;;;;;;;6.15;4.03;;;;;;;;;;5006260;28;20071;-54
2023/04/04 08:35:35;;;;;;;5.93;4.40;;;;;;;;;;5008951;28;20034;-55
2023/04/04 08:38:05;;;;;;;5.60;4.55;;;;;;;;;;5009067;28;20037;-55
2023/04/04 08:40:31;;;;;;;6.30;4.15;;;;;;;;;;5008206;28;20488;-55
2023/04/04 08:42:58;;;;;;;6.43;4.38;;;;;;;;;;5008880;28;20049;-54
2023/04/04 08:45:26;;;;;;;5.43;3.58;;;;;;;;;;5008952;28;20050;-54
2023/04/04 08:47:54;;;;;;;6.30;3.90;;;;;;;;;;5009088;28;20046;-56
2023/04/04 08:50:20;;;;;;;6.40;4.30;;;;;;;;;;5007168;28;20065;-55
2023/04/04 08:52:46;;;;;;;6.72;4.63;;;;;;;;;;5008703;28;20050;-56
2023/04/04 08:55:14;;;;;;;8.45;4.90;;;;;;;;;;5008337;28;20041;-54
2023/04/04 08:57:40;;;;;;;6.88;4.43;;;;;;;;;;5009013;28;20030;-56
2023/04/04 09:00:07;;;;;;;8.73;4.53;;;;;;;;;;5007804;28;20038;-55
2023/04/04 09:02:53;;;;;;;5.25;4.47;;;;;;;;;;5004808;28;20026;-54
2023/04/04 09:05:20;;;;;;;5.05;4.28;;;;;;;;;;5010699;28;20048;-54
2023/04/04 09:07:47;;;;;;;7.07;5.10;;;;;;;;;;5012770;28;20065;-55
2023/04/04 09:10:13;;;;;;;6.65;4.47;;;;;;;;;;5009167;28;20037;-54
2023/04/04 09:12:43;;;;;;;6.63;4.85;;;;;;;;;;5006320;28;20048;-57
2023/04/04 09:15:10;;;;;;;4.80;4.13;;;;;;;;;;5003790;28;20044;-55
2023/04/04 09:17:36;;;;;;;4.85;4.03;;;;;;;;;;5009483;28;20049;-55
2023/04/04 09:20:03;;;;;;;6.78;4.10;;;;;;;;;;5007042;28;20061;-55
2023/04/04 09:22:31;;;;;;;7.90;4.57;;;;;;;;;;5005269;28;20041;-57
2023/04/04 09:24:58;;;;;;;7.75;4.35;;;;;;;;;;5001868;28;20034;-56
2023/04/04 09:27:24;;;;;;;5.68;3.90;;;;;;;;;;5003632;28;20061;-56
2023/04/04 09:29:51;;;;;;;10.60;5.85;;;;;;;;;;5003032;28;20041;-56
2023/04/04 09:32:21;;;;;;;14.00;7.90;;;;;;;;;;5011483;28;20518;-56
2023/04/04 09:34:48;;;;;;;20.48;11.00;;;;;;;;;;5011764;28;20030;-56
2023/04/04 09:37:16;;;;;;;9.65;6.38;;;;;;;;;;5011542;28;20037;-53
2023/04/04 09:39:43;;;;;;;6.68;4.90;;;;;;;;;;5010973;28;20046;-56
2023/04/04 09:42:10;;;;;;;5.32;4.10;;;;;;;;;;5008843;28;20601;-57
2023/04/04 09:44:37;;;;;;;6.55;4.60;;;;;;;;;;5010985;28;20474;-55
2023/04/04 09:47:22;;;;;;;10.25;5.38;;;;;;;;;;5012224;28;20042;-55
2023/04/04 09:49:48;;;;;;;7.60;5.03;;;;;;;;;;5005127;28;20037;-55
2023/04/04 09:52:19;;;;;;;11.13;6.40;;;;;;;;;;5010024;28;20029;-56
2023/04/04 09:54:59;;;;;;;9.30;6.18;;;;;;;;;;5008643;28;20046;-57
2023/04/04 09:57:28;;;;;;;8.77;5.30;;;;;;;;;;5006437;28;20052;-55
2023/04/04 10:00:02;;;;;;;6.57;4.47;;;;;;;;;;5010429;28;20041;-55
2023/04/04 10:02:39;;;;;;;;;;;;;;;;;;5012085;28;20634;-56
2023/04/04 10:05:09;;;;;;;7.50;4.63;;;;;;;;;;5009600;28;19920;-56
2023/04/04 10:07:38;;;;;;;6.00;3.85;;;;;;;;;;5007863;28;20463;-55
2023/04/04 10:10:06;;;;;;;6.20;4.50;;;;;;;;;;5001383;28;20057;-56
2023/04/04 10:12:32;;;;;;;6.85;4.80;;;;;;;;;;5005234;28;20044;-57
2023/04/04 10:15:02;;;;;;;5.65;4.20;;;;;;;;;;5002983;28;20037;-55
2023/04/04 10:17:39;;;;;;;5.18;4.43;;;;;;;;;;5006022;28;20030;-56
2023/04/04 10:20:10;;;;;;;4.80;3.90;;;;;;;;;;5000031;28;20057;-57
2023/04/04 10:22:37;;;;;;;5.65;3.83;;;;;;;;;;5004457;28;20049;-56
2023/04/04 10:25:04;;;;;;;8.18;4.30;;;;;;;;;;5025370;28;20041;-56
2023/04/04 10:27:31;;;;;;;6.05;4.50;;;;;;;;;;5003948;28;20058;-57
2023/04/04 10:29:59;;;;;;;5.75;4.13;;;;;;;;;;5008837;28;20033;-56
2023/04/04 10:32:39;;;;;;;6.05;4.25;;;;;;;;;;5008663;28;20048;-57
2023/04/04 10:35:09;;;;;;;6.63;4.45;;;;;;;;;;5006578;28;20045;-56
2023/04/04 10:37:58;;;;;;;4.82;3.88;;;;;;;;;;5010398;28;20519;-56
2023/04/04 10:40:33;;;;;;;6.07;4.47;;;;;;;;;;5009384;28;20060;-55
2023/04/04 10:43:02;;;;;;;4.55;3.80;;;;;;;;;;5010245;28;20400;-56
2023/04/04 10:45:31;;;;;;;7.65;4.40;;;;;;;;;;5010329;28;20484;-55
2023/04/04 10:47:58;;;;;;;6.45;4.45;;;;;;;;;;5010701;28;20124;-55
2023/04/04 10:50:25;;;;;;;5.55;4.00;;;;;;;;;;5010541;28;20049;-56
2023/04/04 10:52:51;;;;;;;6.32;4.82;;;;;;;;;;5009974;28;20054;-56
2023/04/04 10:55:18;;;;;;;7.43;5.57;;;;;;;;;;5005182;28;20506;-56
2023/04/04 10:57:49;;;;;;;7.72;5.07;;;;;;;;;;5010459;28;20403;-56
2023/04/04 11:00:18;;;;;;;8.73;6.13;;;;;;;;;;5003199;28;20527;-56
2023/04/04 11:02:48;;;;;;;9.68;5.00;;;;;;;;;;4992737;28;20037;-56
2023/04/04 11:05:18;;;;;;;8.35;4.50;;;;;;;;;;5009731;28;20376;-56
2023/04/04 11:07:45;;;;;;;9.40;5.50;;;;;;;;;;5010127;28;20040;-56
2023/04/04 11:10:14;;;;;;;6.68;4.95;;;;;;;;;;5006867;28;20040;-56
2023/04/04 11:12:45;;;;;;;5.90;4.35;;;;;;;;;;5006713;28;20034;-57
2023/04/04 11:15:13;;;;;;;5.75;4.43;;;;;;;;;;5007489;28;20033;-57
2023/04/04 11:17:42;;;;;;;8.15;4.38;;;;;;;;;;5003652;28;20495;-57
2023/04/04 11:20:09;;;;;;;;;;;;;;;;;;5004044;28;20547;-57
2023/04/04 11:22:35;;;;;;;4.63;4.15;;;;;;;;;;4999123;28;19920;-56
2023/04/04 11:25:32;;;;;;;5.65;4.30;;;;;;;;;;5004120;28;20050;-57
2023/04/04 11:28:02;;;;;;;5.45;4.03;;;;;;;;;;5010084;28;20046;-56
2023/04/04 11:30:28;;;;;;;7.28;4.57;;;;;;;;;;5008872;28;20045;-55
2023/04/04 11:32:58;;;;;;;7.07;4.20;;;;;;;;;;5008889;28;20052;-56
2023/04/04 11:35:25;;;;;;;5.18;4.63;;;;;;;;;;5005819;28;20038;-55
2023/04/04 11:37:52;;;;;;;7.57;4.57;;;;;;;;;;5009738;28;20030;-56
2023/04/04 11:40:18;;;;;;;5.68;4.28;;;;;;;;;;5009028;28;20038;-56
2023/04/04 11:42:51;;;;;;;5.00;3.85;;;;;;;;;;5009517;28;20037;-57
2023/04/04 11:45:18;;;;;;;10.38;4.65;;;;;;;;;;5008888;28;20431;-55
2023/04/04 11:47:48;;;;;;;9.75;5.90;;;;;;;;;;5009546;28;20030;-56
2023/04/04 11:50:15;;;;;;;6.65;4.78;;;;;;;;;;5009330;28;20037;-55
2023/04/04 11:52:42;;;;;;;6.78;4.22;;;;;;;;;;5009185;28;20041;-56
2023/04/04 11:55:19;;;;;;;6.25;4.47;;;;;;;;;;5009077;28;20050;-56
2023/04/04 11:57:46;;;;;;;5.80;4.28;;;;;;;;;;5009875;28;20049;-57
2023/04/04 12:00:35;;;;;;;7.55;4.90;;;;;;;;;;5008328;28;20037;-56
2023/04/04 12:03:07;;;;;;;7.43;4.32;;;;;;;;;;5009221;28;20638;-56
2023/04/04 12:05:33;;;;;;;6.88;4.55;;;;;;;;;;5005605;28;20510;-57
2023/04/04 12:08:01;;;;;;;9.07;5.18;;;;;;;;;;5002619;28;20042;-56
2023/04/04 12:10:30;;;;;;;10.23;5.70;;;;;;;;;;4997378;28;20033;-56
2023/04/04 12:12:58;;;;;;;15.35;6.38;;;;;;;;;;5009025;28;20061;-55
2023/04/04 12:15:26;;;;;;;5.03;4.50;;;;;;;;;;5000275;28;20042;-56
2023/04/04 12:17:53;;;;;;;6.32;4.53;;;;;;;;;;5001283;28;20396;-56
2023/04/04 12:20:22;;;;;;;6.68;4.70;;;;;;;;;;5001234;28;20030;-57
2023/04/04 12:22:50;;;;;;;7.38;4.40;;;;;;;;;;4998820;28;20068;-56
2023/04/04 12:25:22;;;;;;;5.55;4.40;;;;;;;;;;5002817;28;20037;-57
2023/04/04 12:27:50;;;;;;;7.82;4.80;;;;;;;;;;5008463;28;20424;-56
2023/04/04 12:30:17;;;;;;;5.38;4.28;;;;;;;;;;5008441;28;20030;-56
2023/04/04 12:32:48;;;;;;;7.43;4.72;;;;;;;;;;5008575;28;20164;-57
2023/04/04 12:35:17;;;;;;;6.78;4.88;;;;;;;;;;5008732;28;20446;-57
2023/04/04 12:38:09;;;;;;;23.35;6.82;;;;;;;;;;5007391;28;20030;-57
2023/04/04 12:40:37;;;;;;;9.63;6.20;;;;;;;;;;5010671;28;20049;-58
2023/04/04 12:43:08;;;;;;;16.63;7.20;;;;;;;;;;5006412;28;20049;-57
2023/04/04 12:45:38;;;;;;;9.68;5.70;;;;;;;;;;5012979;28;20041;-56
2023/04/04 12:48:12;;;;;;;7.25;5.10;;;;;;;;;;5008982;28;20038;-56
2023/04/04 12:50:51;;;;;;;5.90;4.60;;;;;;;;;;5009315;28;20488;-57
2023/04/04 12:53:28;;;;;;;6.97;4.90;;;;;;;;;;5012636;28;20041;-57
2023/04/04 12:56:00;;;;;;;12.15;7.10;;;;;;;;;;5011315;28;20038;-56
2023/04/04 12:58:27;;;;;;;7.50;5.45;;;;;;;;;;5012204;28;20435;-56
2023/04/04 13:00:57;;;;;;;7.22;4.65;;;;;;;;;;5011921;28;20416;-57
2023/04/04 13:03:24;;;;;;;9.27;5.50;;;;;;;;;;5012509;28;20030;-57
2023/04/04 13:05:53;;;;;;;5.85;4.72;;;;;;;;;;5012415;28;20361;-57
2023/04/04 13:08:20;;;;;;;8.70;5.35;;;;;;;;;;5002720;28;20038;-57
2023/04/04 13:11:05;;;;;;;5.15;4.60;;;;;;;;;;5003777;28;20038;-57
2023/04/04 13:13:38;;;;;;;6.35;4.40;;;;;;;;;;5004525;28;20056;-57
2023/04/04 13:16:06;;;;;;;7.00;5.10;;;;;;;;;;5006826;28;20036;-56
2023/04/04 13:18:38;;;;;;;7.25;4.90;;;;;;;;;;5003817;28;20038;-57
2023/04/04 13:21:08;;;;;;;4.63;3.80;;;;;;;;;;5004442;28;20050;-57
2023/04/04 13:23:38;;;;;;;7.32;4.50;;;;;;;;;;5007436;28;20080;-57
2023/04/04 13:26:07;;;;;;;7.05;4.40;;;;;;;;;;5004777;28;20591;-56
2023/04/04 13:28:34;;;;;;;4.70;4.10;;;;;;;;;;5011819;28;20033;-57
2023/04/04 13:31:04;;;;;;;5.55;4.57;;;;;;;;;;5008745;28;20037;-58
2023/04/04 13:33:31;;;;;;;7.25;5.00;;;;;;;;;;5008258;28;20034;-56
2023/04/04 13:35:58;;;;;;;6.30;4.50;;;;;;;;;;5009223;28;20495;-57
2023/04/04 13:38:26;;;;;;;6.75;4.72;;;;;;;;;;5011671;28;20475;-58
2023/04/04 13:40:52;;;;;;;5.93;4.18;;;;;;;;;;5010911;28;20404;-58
2023/04/04 13:43:19;;;;;;;5.65;4.00;;;;;;;;;;5011233;28;20046;-58
2023/04/04 13:45:45;;;;;;;6.32;5.03;;;;;;;;;;5011727;28;20470;-57
2023/04/04 13:48:12;;;;;;;5.15;4.25;;;;;;;;;;5011681;28;20037;-57
2023/04/04 13:50:40;;;;;;;7.95;5.13;;;;;;;;;;5009213;28;20101;-57
2023/04/04 13:53:07;;;;;;;7.15;5.13;;;;;;;;;;5011524;28;20403;-57
2023/04/04 13:55:33;;;;;;;5.22;4.20;;;;;;;;;;5011198;28;20042;-57
2023/04/04 13:57:59;;;;;;;5.38;4.18;;;;;;;;;;5004797;28;20049;-57
2023/04/04 14:00:25;;;;;;;9.60;6.93;;;;;;;;;;5010429;28;20046;-57
2023/04/04 14:02:52;;;;;;;10.52;6.80;;;;;;;;;;5010994;28;20038;-57
2023/04/04 14:05:18;;;;;;;7.15;4.25;;;;;;;;;;5006482;28;20030;-57
2023/04/04 14:07:44;;;;;;;13.75;8.40;;;;;;;;;;5006567;28;20033;-57
2023/04/04 14:10:11;;;;;;;7.80;4.72;;;;;;;;;;5004726;28;20052;-57
2023/04/04 14:12:37;;;;;;;18.17;8.75;;;;;;;;;;5008431;28;20487;-57
2023/04/04 14:15:06;;;;;;;6.18;4.20;;;;;;;;;;5006642;28;20377;-57
2023/04/04 14:17:32;;;;;;;8.20;5.22;;;;;;;;;;5002231;28;20054;-57
2023/04/04 14:19:58;;;;;;;10.10;6.40;;;;;;;;;;5000865;28;20034;-57
2023/04/04 14:22:25;;;;;;;8.10;5.20;;;;;;;;;;5005758;28;20055;-57
2023/04/04 14:24:51;;;;;;;7.32;4.85;;;;;;;;;;5002956;28;20045;-58
2023/04/04 14:27:17;;;;;;;9.75;4.85;;;;;;;;;;5011025;28;20053;-57
2023/04/04 14:29:43;;;;;;;6.53;4.50;;;;;;;;;;5009884;28;20045;-57
2023/04/04 14:32:10;;;;;;;6.80;4.47;;;;;;;;;;5009399;28;20041;-57
2023/04/04 14:34:36;;;;;;;10.13;6.82;;;;;;;;;;5005983;28;20041;-57
2023/04/04 14:37:03;;;;;;;6.32;4.82;;;;;;;;;;5011101;28;20048;-58
2023/04/04 14:39:29;;;;;;;6.93;4.80;;;;;;;;;;5009943;28;20034;-57
2023/04/04 14:41:55;;;;;;;8.23;4.45;;;;;;;;;;5010862;28;20041;-57
2023/04/04 14:44:21;;;;;;;6.25;4.03;;;;;;;;;;5010004;28;20033;-57
2023/04/04 14:46:51;;;;;;;7.82;4.90;;;;;;;;;;5007144;28;20039;-57
2023/04/04 14:49:18;;;;;;;8.50;4.65;;;;;;;;;;5010229;28;20042;-58